sensor_id;sensor_type;location;lat;lon;timestamp;temperature;humidity
70475;DHT22;57944;48.722;9.316;2022-12-18T00:01:39;-8.20;99.90
70475;DHT22;57944;48.722;9.316;2022-12-18T00:04:16;-8.10;99.90
70475;DHT22;57944;48.722;9.316;2022-12-18T00:06:53;-8.10;99.90
70475;DHT22;57944;48.722;9.316;2022-12-18T00:09:23;-8.30;99.90
70475;DHT22;57944;48.722;9.316;2022-12-18T00:12:06;-8.30;99.90
70475;DHT22;57944;48.722;9.316;2022-12-18T00:14:41;-8.10;99.90
70475;DHT22;57944;48.722;9.316;2022-12-18T00:17:13;-8.10;99.90
70475;DHT22;57944;48.722;9.316;2022-12-18T00:19:43;-8.20;99.90
70475;DHT22;57944;48.722;9.316;2022-12-18T00:22:15;-8.30;99.90
70475;DHT22;57944;48.722;9.316;2022-12-18T00:24:45;-8.00;99.90
70475;DHT22;57944;48.722;9.316;2022-12-18T00:27:15;-8.20;99.90
70475;DHT22;57944;48.722;9.316;2022-12-18T00:29:45;-8.20;99.90
70475;DHT22;57944;48.722;9.316;2022-12-18T00:32:17;-8.20;99.90
70475;DHT22;57944;48.722;9.316;2022-12-18T00:34:47;-8.20;99.90
70475;DHT22;57944;48.722;9.316;2022-12-18T00:37:19;-8.20;99.90
70475;DHT22;57944;48.722;9.316;2022-12-18T00:39:50;-8.30;99.90
70475;DHT22;57944;48.722;9.316;2022-12-18T00:42:20;-8.40;99.90
70475;DHT22;57944;48.722;9.316;2022-12-18T00:45:03;-8.40;99.90
70475;DHT22;57944;48.722;9.316;2022-12-18T00:47:38;-8.30;99.90
70475;DHT22;57944;48.722;9.316;2022-12-18T00:50:09;-8.40;99.90
70475;DHT22;57944;48.722;9.316;2022-12-18T00:52:43;-8.50;99.90
70475;DHT22;57944;48.722;9.316;2022-12-18T00:55:14;-8.30;99.90
70475;DHT22;57944;48.722;9.316;2022-12-18T00:57:46;-8.30;99.90
70475;DHT22;57944;48.722;9.316;2022-12-18T01:00:16;-8.20;99.90
70475;DHT22;57944;48.722;9.316;2022-12-18T01:02:46;-8.10;99.90
70475;DHT22;57944;48.722;9.316;2022-12-18T01:05:17;-8.00;99.90
70475;DHT22;57944;48.722;9.316;2022-12-18T01:07:50;-8.20;99.90
70475;DHT22;57944;48.722;9.316;2022-12-18T01:10:20;-8.40;99.90
70475;DHT22;57944;48.722;9.316;2022-12-18T01:12:50;-8.40;99.90
70475;DHT22;57944;48.722;9.316;2022-12-18T01:15:21;-8.40;99.90
70475;DHT22;57944;48.722;9.316;2022-12-18T01:17:52;-8.40;99.90
70475;DHT22;57944;48.722;9.316;2022-12-18T01:20:22;-8.40;99.90
70475;DHT22;57944;48.722;9.316;2022-12-18T01:22:55;-8.40;99.90
70475;DHT22;57944;48.722;9.316;2022-12-18T01:25:26;-8.30;99.90
70475;DHT22;57944;48.722;9.316;2022-12-18T01:27:56;-8.30;99.90
70475;DHT22;57944;48.722;9.316;2022-12-18T01:30:26;-8.40;99.90
70475;DHT22;57944;48.722;9.316;2022-12-18T01:32:56;-8.50;99.90
70475;DHT22;57944;48.722;9.316;2022-12-18T01:35:26;-8.50;99.90
70475;DHT22;57944;48.722;9.316;2022-12-18T01:37:59;-8.50;99.90
70475;DHT22;57944;48.722;9.316;2022-12-18T01:40:29;-8.40;99.90
70475;DHT22;57944;48.722;9.316;2022-12-18T01:42:59;-8.30;99.90
70475;DHT22;57944;48.722;9.316;2022-12-18T01:45:31;-8.40;99.90
70475;DHT22;57944;48.722;9.316;2022-12-18T01:48:04;-8.30;99.90
70475;DHT22;57944;48.722;9.316;2022-12-18T01:50:40;-8.40;99.90
70475;DHT22;57944;48.722;9.316;2022-12-18T01:53:17;-8.40;99.90
70475;DHT22;57944;48.722;9.316;2022-12-18T01:55:52;-8.30;99.90
70475;DHT22;57944;48.722;9.316;2022-12-18T01:58:30;-8.50;99.90
70475;DHT22;57944;48.722;9.316;2022-12-18T02:01:07;-8.50;99.90
70475;DHT22;57944;48.722;9.316;2022-12-18T02:03:40;-8.80;99.90
70475;DHT22;57944;48.722;9.316;2022-12-18T02:06:15;-8.90;99.90
70475;DHT22;57944;48.722;9.316;2022-12-18T02:09:06;-8.90;99.90
70475;DHT22;57944;48.722;9.316;2022-12-18T02:11:46;-9.10;99.90
70475;DHT22;57944;48.722;9.316;2022-12-18T02:14:30;-9.10;99.90
70475;DHT22;57944;48.722;9.316;2022-12-18T02:17:13;-9.30;99.90
70475;DHT22;57944;48.722;9.316;2022-12-18T02:19:59;-9.20;99.90
70475;DHT22;57944;48.722;9.316;2022-12-18T02:22:42;-9.00;99.90
70475;DHT22;57944;48.722;9.316;2022-12-18T02:25:33;-8.90;99.90
70475;DHT22;57944;48.722;9.316;2022-12-18T02:28:20;-8.80;99.90
70475;DHT22;57944;48.722;9.316;2022-12-18T02:31:00;-8.80;99.90
70475;DHT22;57944;48.722;9.316;2022-12-18T02:33:34;-8.80;99.90
70475;DHT22;57944;48.722;9.316;2022-12-18T02:36:08;-9.00;99.90
70475;DHT22;57944;48.722;9.316;2022-12-18T02:38:41;-8.90;99.90
70475;DHT22;57944;48.722;9.316;2022-12-18T02:41:16;-9.20;99.90
70475;DHT22;57944;48.722;9.316;2022-12-18T02:43:54;-9.30;99.90
70475;DHT22;57944;48.722;9.316;2022-12-18T02:46:31;-9.20;99.90
70475;DHT22;57944;48.722;9.316;2022-12-18T02:49:19;-9.50;99.90
70475;DHT22;57944;48.722;9.316;2022-12-18T02:52:05;-9.50;99.90
70475;DHT22;57944;48.722;9.316;2022-12-18T02:54:50;-9.60;99.90
70475;DHT22;57944;48.722;9.316;2022-12-18T02:57:34;-9.80;99.90
70475;DHT22;57944;48.722;9.316;2022-12-18T03:00:14;-10.00;99.90
70475;DHT22;57944;48.722;9.316;2022-12-18T03:02:52;-10.10;99.90
70475;DHT22;57944;48.722;9.316;2022-12-18T03:05:33;-10.20;99.90
70475;DHT22;57944;48.722;9.316;2022-12-18T03:08:13;-10.30;99.90
70475;DHT22;57944;48.722;9.316;2022-12-18T03:10:50;-10.10;99.90
70475;DHT22;57944;48.722;9.316;2022-12-18T03:13:31;-9.80;99.90
70475;DHT22;57944;48.722;9.316;2022-12-18T03:16:10;-9.70;99.90
70475;DHT22;57944;48.722;9.316;2022-12-18T03:18:47;-9.80;99.90
70475;DHT22;57944;48.722;9.316;2022-12-18T03:21:27;-9.90;99.90
70475;DHT22;57944;48.722;9.316;2022-12-18T03:24:07;-9.90;99.90
70475;DHT22;57944;48.722;9.316;2022-12-18T03:26:42;-9.90;99.90
70475;DHT22;57944;48.722;9.316;2022-12-18T03:29:18;-10.00;99.90
70475;DHT22;57944;48.722;9.316;2022-12-18T03:31:58;-9.80;99.90
70475;DHT22;57944;48.722;9.316;2022-12-18T03:34:36;-9.70;99.90
70475;DHT22;57944;48.722;9.316;2022-12-18T03:37:12;-9.80;99.90
70475;DHT22;57944;48.722;9.316;2022-12-18T03:39:42;-9.90;99.90
70475;DHT22;57944;48.722;9.316;2022-12-18T03:42:16;-10.10;99.90
70475;DHT22;57944;48.722;9.316;2022-12-18T03:45:09;-10.30;99.90
70475;DHT22;57944;48.722;9.316;2022-12-18T03:47:57;-10.30;99.90
70475;DHT22;57944;48.722;9.316;2022-12-18T03:50:40;-10.00;99.90
70475;DHT22;57944;48.722;9.316;2022-12-18T03:53:25;-10.00;99.90
70475;DHT22;57944;48.722;9.316;2022-12-18T03:56:04;-10.20;99.90
70475;DHT22;57944;48.722;9.316;2022-12-18T03:58:39;-10.10;99.90
70475;DHT22;57944;48.722;9.316;2022-12-18T04:01:19;-10.40;99.90
70475;DHT22;57944;48.722;9.316;2022-12-18T04:03:58;-10.20;99.90
70475;DHT22;57944;48.722;9.316;2022-12-18T04:06:35;-10.30;99.90
70475;DHT22;57944;48.722;9.316;2022-12-18T04:09:09;-10.50;99.90
70475;DHT22;57944;48.722;9.316;2022-12-18T04:11:43;-10.70;99.90
70475;DHT22;57944;48.722;9.316;2022-12-18T04:14:15;-10.80;99.90
70475;DHT22;57944;48.722;9.316;2022-12-18T04:16:49;-11.00;99.90
70475;DHT22;57944;48.722;9.316;2022-12-18T04:19:27;-11.10;99.90
70475;DHT22;57944;48.722;9.316;2022-12-18T04:21:58;-11.00;99.90
70475;DHT22;57944;48.722;9.316;2022-12-18T04:24:33;-11.00;99.90
70475;DHT22;57944;48.722;9.316;2022-12-18T04:27:11;-10.90;99.90
70475;DHT22;57944;48.722;9.316;2022-12-18T04:29:46;-10.90;99.90
70475;DHT22;57944;48.722;9.316;2022-12-18T04:32:18;-11.10;99.90
70475;DHT22;57944;48.722;9.316;2022-12-18T04:34:51;-11.30;99.90
70475;DHT22;57944;48.722;9.316;2022-12-18T04:37:21;-11.50;99.90
70475;DHT22;57944;48.722;9.316;2022-12-18T04:39:51;-11.40;99.90
70475;DHT22;57944;48.722;9.316;2022-12-18T04:42:32;-11.30;99.90
70475;DHT22;57944;48.722;9.316;2022-12-18T04:45:03;-11.40;99.90
70475;DHT22;57944;48.722;9.316;2022-12-18T04:47:34;-11.40;99.90
70475;DHT22;57944;48.722;9.316;2022-12-18T04:50:07;-11.40;99.90
70475;DHT22;57944;48.722;9.316;2022-12-18T04:52:38;-11.50;99.90
70475;DHT22;57944;48.722;9.316;2022-12-18T04:55:08;-11.60;99.90
70475;DHT22;57944;48.722;9.316;2022-12-18T04:57:38;-11.70;99.90
70475;DHT22;57944;48.722;9.316;2022-12-18T05:00:09;-11.60;99.90
70475;DHT22;57944;48.722;9.316;2022-12-18T05:02:40;-11.60;99.90
70475;DHT22;57944;48.722;9.316;2022-12-18T05:05:13;-11.70;99.90
70475;DHT22;57944;48.722;9.316;2022-12-18T05:07:43;-11.70;99.90
70475;DHT22;57944;48.722;9.316;2022-12-18T05:10:14;-11.50;99.90
70475;DHT22;57944;48.722;9.316;2022-12-18T05:12:45;-11.30;99.90
70475;DHT22;57944;48.722;9.316;2022-12-18T05:15:31;-11.50;99.90
70475;DHT22;57944;48.722;9.316;2022-12-18T05:18:02;-11.50;99.90
70475;DHT22;57944;48.722;9.316;2022-12-18T05:20:36;-11.50;99.90
70475;DHT22;57944;48.722;9.316;2022-12-18T05:23:06;-11.40;99.90
70475;DHT22;57944;48.722;9.316;2022-12-18T05:25:36;-11.60;99.90
70475;DHT22;57944;48.722;9.316;2022-12-18T05:28:07;-11.50;99.90
70475;DHT22;57944;48.722;9.316;2022-12-18T05:30:37;-11.70;99.90
70475;DHT22;57944;48.722;9.316;2022-12-18T05:33:07;-11.90;99.90
70475;DHT22;57944;48.722;9.316;2022-12-18T05:35:40;-12.00;99.90
70475;DHT22;57944;48.722;9.316;2022-12-18T05:38:10;-12.10;99.90
70475;DHT22;57944;48.722;9.316;2022-12-18T05:40:41;-12.10;99.90
70475;DHT22;57944;48.722;9.316;2022-12-18T05:43:12;-12.10;99.90
70475;DHT22;57944;48.722;9.316;2022-12-18T05:45:47;-12.30;99.90
70475;DHT22;57944;48.722;9.316;2022-12-18T05:48:18;-12.20;99.90
70475;DHT22;57944;48.722;9.316;2022-12-18T05:50:51;-11.90;99.90
70475;DHT22;57944;48.722;9.316;2022-12-18T05:53:21;-11.80;99.90
70475;DHT22;57944;48.722;9.316;2022-12-18T05:55:51;-11.90;99.90
70475;DHT22;57944;48.722;9.316;2022-12-18T05:58:21;-11.90;99.90
70475;DHT22;57944;48.722;9.316;2022-12-18T06:00:51;-12.10;99.90
70475;DHT22;57944;48.722;9.316;2022-12-18T06:03:21;-12.20;99.90
70475;DHT22;57944;48.722;9.316;2022-12-18T06:06:02;-12.00;99.90
70475;DHT22;57944;48.722;9.316;2022-12-18T06:08:32;-11.80;99.90
70475;DHT22;57944;48.722;9.316;2022-12-18T06:11:10;-12.00;99.90
70475;DHT22;57944;48.722;9.316;2022-12-18T06:13:40;-12.00;99.90
70475;DHT22;57944;48.722;9.316;2022-12-18T06:16:10;-12.00;99.90
70475;DHT22;57944;48.722;9.316;2022-12-18T06:18:40;-11.80;99.90
70475;DHT22;57944;48.722;9.316;2022-12-18T06:21:13;-11.80;99.90
70475;DHT22;57944;48.722;9.316;2022-12-18T06:23:43;-11.90;99.90
70475;DHT22;57944;48.722;9.316;2022-12-18T06:26:14;-12.00;99.90
70475;DHT22;57944;48.722;9.316;2022-12-18T06:28:50;-12.00;99.90
70475;DHT22;57944;48.722;9.316;2022-12-18T06:31:20;-11.90;99.90
70475;DHT22;57944;48.722;9.316;2022-12-18T06:33:50;-11.90;99.90
70475;DHT22;57944;48.722;9.316;2022-12-18T06:36:23;-12.00;99.90
70475;DHT22;57944;48.722;9.316;2022-12-18T06:38:53;-12.00;99.90
70475;DHT22;57944;48.722;9.316;2022-12-18T06:41:23;-12.20;99.90
70475;DHT22;57944;48.722;9.316;2022-12-18T06:43:54;-12.20;99.90
70475;DHT22;57944;48.722;9.316;2022-12-18T06:46:26;-12.10;99.90
70475;DHT22;57944;48.722;9.316;2022-12-18T06:48:56;-12.20;99.90
70475;DHT22;57944;48.722;9.316;2022-12-18T06:51:28;-12.30;99.90
70475;DHT22;57944;48.722;9.316;2022-12-18T06:53:58;-12.40;99.90
70475;DHT22;57944;48.722;9.316;2022-12-18T06:56:28;-12.30;99.90
70475;DHT22;57944;48.722;9.316;2022-12-18T06:58:58;-11.90;99.90
70475;DHT22;57944;48.722;9.316;2022-12-18T07:01:29;-11.70;99.90
70475;DHT22;57944;48.722;9.316;2022-12-18T07:03:59;-11.60;99.90
70475;DHT22;57944;48.722;9.316;2022-12-18T07:06:32;-11.70;99.90
70475;DHT22;57944;48.722;9.316;2022-12-18T07:09:02;-11.60;99.90
70475;DHT22;57944;48.722;9.316;2022-12-18T07:11:32;-11.60;99.90
70475;DHT22;57944;48.722;9.316;2022-12-18T07:14:03;-11.60;99.90
70475;DHT22;57944;48.722;9.316;2022-12-18T07:16:33;-11.70;99.90
70475;DHT22;57944;48.722;9.316;2022-12-18T07:19:03;-11.60;99.90
70475;DHT22;57944;48.722;9.316;2022-12-18T07:21:35;-11.60;99.90
70475;DHT22;57944;48.722;9.316;2022-12-18T07:24:06;-11.80;99.90
70475;DHT22;57944;48.722;9.316;2022-12-18T07:26:37;-11.90;99.90
70475;DHT22;57944;48.722;9.316;2022-12-18T07:29:08;-12.00;99.90
70475;DHT22;57944;48.722;9.316;2022-12-18T07:31:38;-12.00;99.90
70475;DHT22;57944;48.722;9.316;2022-12-18T07:34:10;-11.80;99.90
70475;DHT22;57944;48.722;9.316;2022-12-18T07:36:44;-11.50;99.90
70475;DHT22;57944;48.722;9.316;2022-12-18T07:39:14;-11.70;99.90
70475;DHT22;57944;48.722;9.316;2022-12-18T07:41:44;-11.80;99.90
70475;DHT22;57944;48.722;9.316;2022-12-18T07:44:35;-11.90;99.90
70475;DHT22;57944;48.722;9.316;2022-12-18T07:47:05;-11.70;99.90
70475;DHT22;57944;48.722;9.316;2022-12-18T07:49:38;-11.80;99.90
70475;DHT22;57944;48.722;9.316;2022-12-18T07:52:10;-11.70;99.90
70475;DHT22;57944;48.722;9.316;2022-12-18T07:54:41;-11.60;99.90
70475;DHT22;57944;48.722;9.316;2022-12-18T07:57:11;-11.70;99.90
70475;DHT22;57944;48.722;9.316;2022-12-18T08:00:01;-11.50;99.90
70475;DHT22;57944;48.722;9.316;2022-12-18T08:02:38;-11.60;99.90
70475;DHT22;57944;48.722;9.316;2022-12-18T08:05:08;-11.70;99.90
70475;DHT22;57944;48.722;9.316;2022-12-18T08:07:41;-11.60;99.90
70475;DHT22;57944;48.722;9.316;2022-12-18T08:10:11;-11.60;99.90
70475;DHT22;57944;48.722;9.316;2022-12-18T08:12:42;-11.60;99.90
70475;DHT22;57944;48.722;9.316;2022-12-18T08:15:12;-11.60;99.90
70475;DHT22;57944;48.722;9.316;2022-12-18T08:17:42;-11.00;99.90
70475;DHT22;57944;48.722;9.316;2022-12-18T08:20:12;-11.00;99.90
70475;DHT22;57944;48.722;9.316;2022-12-18T08:22:47;-11.00;99.90
70475;DHT22;57944;48.722;9.316;2022-12-18T08:25:18;-11.10;99.90
70475;DHT22;57944;48.722;9.316;2022-12-18T08:27:48;-11.20;99.90
70475;DHT22;57944;48.722;9.316;2022-12-18T08:30:18;-11.00;99.90
70475;DHT22;57944;48.722;9.316;2022-12-18T08:32:51;-10.90;99.90
70475;DHT22;57944;48.722;9.316;2022-12-18T08:35:21;-11.10;99.90
70475;DHT22;57944;48.722;9.316;2022-12-18T08:37:54;-10.80;99.90
70475;DHT22;57944;48.722;9.316;2022-12-18T08:40:24;-10.80;99.90
70475;DHT22;57944;48.722;9.316;2022-12-18T08:42:54;-10.70;99.90
70475;DHT22;57944;48.722;9.316;2022-12-18T08:45:37;-10.50;99.90
70475;DHT22;57944;48.722;9.316;2022-12-18T08:48:07;-10.50;99.90
70475;DHT22;57944;48.722;9.316;2022-12-18T08:50:37;-10.60;99.90
70475;DHT22;57944;48.722;9.316;2022-12-18T08:53:11;-10.20;99.90
70475;DHT22;57944;48.722;9.316;2022-12-18T08:55:41;-10.40;99.90
70475;DHT22;57944;48.722;9.316;2022-12-18T08:58:16;-10.30;99.90
70475;DHT22;57944;48.722;9.316;2022-12-18T09:00:46;-10.00;99.90
70475;DHT22;57944;48.722;9.316;2022-12-18T09:03:18;-9.60;99.90
70475;DHT22;57944;48.722;9.316;2022-12-18T09:05:50;-9.30;99.90
70475;DHT22;57944;48.722;9.316;2022-12-18T09:08:23;-9.40;99.90
70475;DHT22;57944;48.722;9.316;2022-12-18T09:10:53;-8.80;99.90
70475;DHT22;57944;48.722;9.316;2022-12-18T09:13:23;-8.20;99.90
70475;DHT22;57944;48.722;9.316;2022-12-18T09:15:54;-8.40;99.90
70475;DHT22;57944;48.722;9.316;2022-12-18T09:18:25;-8.20;99.90
70475;DHT22;57944;48.722;9.316;2022-12-18T09:20:55;-8.30;99.90
70475;DHT22;57944;48.722;9.316;2022-12-18T09:23:27;-8.50;99.90
70475;DHT22;57944;48.722;9.316;2022-12-18T09:25:58;-8.50;99.90
70475;DHT22;57944;48.722;9.316;2022-12-18T09:28:29;-8.90;99.90
70475;DHT22;57944;48.722;9.316;2022-12-18T09:31:04;-8.70;99.90
70475;DHT22;57944;48.722;9.316;2022-12-18T09:33:36;-8.60;99.90
70475;DHT22;57944;48.722;9.316;2022-12-18T09:36:11;-8.60;99.90
70475;DHT22;57944;48.722;9.316;2022-12-18T09:38:45;-8.50;99.90
70475;DHT22;57944;48.722;9.316;2022-12-18T09:41:25;-8.50;99.90
70475;DHT22;57944;48.722;9.316;2022-12-18T09:44:05;-8.40;99.90
70475;DHT22;57944;48.722;9.316;2022-12-18T09:46:53;-8.40;99.90
70475;DHT22;57944;48.722;9.316;2022-12-18T09:49:34;-8.30;99.90
70475;DHT22;57944;48.722;9.316;2022-12-18T09:52:14;-8.50;99.90
70475;DHT22;57944;48.722;9.316;2022-12-18T09:54:55;-8.30;99.90
70475;DHT22;57944;48.722;9.316;2022-12-18T09:57:32;-8.20;99.90
70475;DHT22;57944;48.722;9.316;2022-12-18T10:00:15;-8.40;99.90
70475;DHT22;57944;48.722;9.316;2022-12-18T10:02:48;-8.30;99.90
70475;DHT22;57944;48.722;9.316;2022-12-18T10:05:30;-8.00;99.90
70475;DHT22;57944;48.722;9.316;2022-12-18T10:08:10;-7.80;99.90
70475;DHT22;57944;48.722;9.316;2022-12-18T10:10:52;-7.90;99.90
70475;DHT22;57944;48.722;9.316;2022-12-18T10:13:28;-7.70;99.90
70475;DHT22;57944;48.722;9.316;2022-12-18T10:16:09;-7.50;99.90
70475;DHT22;57944;48.722;9.316;2022-12-18T10:19:01;-7.70;99.90
70475;DHT22;57944;48.722;9.316;2022-12-18T10:21:48;-7.50;99.90
70475;DHT22;57944;48.722;9.316;2022-12-18T10:24:31;-7.10;99.90
70475;DHT22;57944;48.722;9.316;2022-12-18T10:27:15;-6.70;99.90
70475;DHT22;57944;48.722;9.316;2022-12-18T10:29:46;-6.70;99.90
70475;DHT22;57944;48.722;9.316;2022-12-18T10:32:19;-6.90;99.90
70475;DHT22;57944;48.722;9.316;2022-12-18T10:34:54;-6.70;99.90
70475;DHT22;57944;48.722;9.316;2022-12-18T10:37:28;-6.70;99.90
70475;DHT22;57944;48.722;9.316;2022-12-18T10:40:10;-6.70;99.90
70475;DHT22;57944;48.722;9.316;2022-12-18T10:43:03;-6.40;99.90
70475;DHT22;57944;48.722;9.316;2022-12-18T10:45:35;-6.50;99.90
70475;DHT22;57944;48.722;9.316;2022-12-18T10:48:17;-6.10;99.90
70475;DHT22;57944;48.722;9.316;2022-12-18T10:50:50;-6.10;99.90
70475;DHT22;57944;48.722;9.316;2022-12-18T10:53:41;-5.70;99.90
70475;DHT22;57944;48.722;9.316;2022-12-18T10:56:12;-5.90;99.90
70475;DHT22;57944;48.722;9.316;2022-12-18T10:58:59;-6.00;99.90
70475;DHT22;57944;48.722;9.316;2022-12-18T11:01:46;-5.80;99.90
70475;DHT22;57944;48.722;9.316;2022-12-18T11:04:21;-5.70;99.90
70475;DHT22;57944;48.722;9.316;2022-12-18T11:06:54;-5.70;99.90
70475;DHT22;57944;48.722;9.316;2022-12-18T11:09:30;-5.30;99.90
70475;DHT22;57944;48.722;9.316;2022-12-18T11:12:03;-4.90;99.90
70475;DHT22;57944;48.722;9.316;2022-12-18T11:14:47;-4.60;99.90
70475;DHT22;57944;48.722;9.316;2022-12-18T11:17:19;-4.20;99.90
70475;DHT22;57944;48.722;9.316;2022-12-18T11:19:53;-3.90;99.90
70475;DHT22;57944;48.722;9.316;2022-12-18T11:22:26;-3.90;99.90
70475;DHT22;57944;48.722;9.316;2022-12-18T11:24:59;-3.60;99.90
70475;DHT22;57944;48.722;9.316;2022-12-18T11:27:56;-3.30;99.90
70475;DHT22;57944;48.722;9.316;2022-12-18T11:30:32;-3.10;99.90
70475;DHT22;57944;48.722;9.316;2022-12-18T11:33:06;-3.00;99.90
70475;DHT22;57944;48.722;9.316;2022-12-18T11:35:44;-3.10;99.90
70475;DHT22;57944;48.722;9.316;2022-12-18T11:38:23;-2.90;99.90
70475;DHT22;57944;48.722;9.316;2022-12-18T11:40:58;-3.00;99.90
70475;DHT22;57944;48.722;9.316;2022-12-18T11:43:38;-3.10;99.90
70475;DHT22;57944;48.722;9.316;2022-12-18T11:46:18;-3.00;99.90
70475;DHT22;57944;48.722;9.316;2022-12-18T11:49:01;-2.90;99.90
70475;DHT22;57944;48.722;9.316;2022-12-18T11:51:41;-2.90;99.90
70475;DHT22;57944;48.722;9.316;2022-12-18T11:54:15;-2.90;99.90
70475;DHT22;57944;48.722;9.316;2022-12-18T11:56:49;-3.00;99.90
70475;DHT22;57944;48.722;9.316;2022-12-18T11:59:30;-3.00;99.90
70475;DHT22;57944;48.722;9.316;2022-12-18T12:02:23;-3.10;99.90
70475;DHT22;57944;48.722;9.316;2022-12-18T12:05:20;-3.20;99.90
70475;DHT22;57944;48.722;9.316;2022-12-18T12:08:06;-3.00;99.90
70475;DHT22;57944;48.722;9.316;2022-12-18T12:10:53;-2.70;99.90
70475;DHT22;57944;48.722;9.316;2022-12-18T12:13:41;-2.70;99.90
70475;DHT22;57944;48.722;9.316;2022-12-18T12:16:24;-2.90;99.90
70475;DHT22;57944;48.722;9.316;2022-12-18T12:19:15;-2.90;99.90
70475;DHT22;57944;48.722;9.316;2022-12-18T12:22:02;-2.70;99.90
70475;DHT22;57944;48.722;9.316;2022-12-18T12:24:47;-2.50;99.90
70475;DHT22;57944;48.722;9.316;2022-12-18T12:27:33;-2.60;99.90
70475;DHT22;57944;48.722;9.316;2022-12-18T12:30:17;-2.50;99.90
70475;DHT22;57944;48.722;9.316;2022-12-18T12:33:01;-2.20;99.90
70475;DHT22;57944;48.722;9.316;2022-12-18T12:35:52;-2.30;99.90
70475;DHT22;57944;48.722;9.316;2022-12-18T12:38:33;-2.10;99.90
70475;DHT22;57944;48.722;9.316;2022-12-18T12:41:09;-1.70;99.90
70475;DHT22;57944;48.722;9.316;2022-12-18T12:43:58;-1.60;99.90
70475;DHT22;57944;48.722;9.316;2022-12-18T12:46:36;-1.50;99.90
70475;DHT22;57944;48.722;9.316;2022-12-18T12:49:12;-1.50;99.90
70475;DHT22;57944;48.722;9.316;2022-12-18T12:51:52;-1.40;99.90
70475;DHT22;57944;48.722;9.316;2022-12-18T12:54:28;-1.50;99.90
70475;DHT22;57944;48.722;9.316;2022-12-18T12:57:07;-1.30;99.90
70475;DHT22;57944;48.722;9.316;2022-12-18T12:59:51;-1.30;99.90
70475;DHT22;57944;48.722;9.316;2022-12-18T13:02:31;-1.30;99.90
70475;DHT22;57944;48.722;9.316;2022-12-18T13:05:22;-1.40;99.90
70475;DHT22;57944;48.722;9.316;2022-12-18T13:08:03;-1.50;99.90
70475;DHT22;57944;48.722;9.316;2022-12-18T13:10:37;-1.30;99.90
70475;DHT22;57944;48.722;9.316;2022-12-18T13:13:10;-1.20;99.90
70475;DHT22;57944;48.722;9.316;2022-12-18T13:15:48;-1.00;99.90
70475;DHT22;57944;48.722;9.316;2022-12-18T13:18:33;-1.10;99.90
70475;DHT22;57944;48.722;9.316;2022-12-18T13:21:12;-0.90;99.90
70475;DHT22;57944;48.722;9.316;2022-12-18T13:23:53;-0.70;99.90
70475;DHT22;57944;48.722;9.316;2022-12-18T13:26:32;-0.60;99.90
70475;DHT22;57944;48.722;9.316;2022-12-18T13:29:03;-0.90;99.90
70475;DHT22;57944;48.722;9.316;2022-12-18T13:38:21;-1.10;99.90
70475;DHT22;57944;48.722;9.316;2022-12-18T13:40:59;-0.90;99.90
70475;DHT22;57944;48.722;9.316;2022-12-18T13:43:33;-0.70;99.90
70475;DHT22;57944;48.722;9.316;2022-12-18T13:46:23;-1.20;99.90
70475;DHT22;57944;48.722;9.316;2022-12-18T13:49:00;-1.20;99.90
70475;DHT22;57944;48.722;9.316;2022-12-18T13:51:53;-0.90;99.90
70475;DHT22;57944;48.722;9.316;2022-12-18T13:54:30;-1.00;99.90
70475;DHT22;57944;48.722;9.316;2022-12-18T13:57:26;-1.20;99.90
70475;DHT22;57944;48.722;9.316;2022-12-18T13:59:58;-1.00;99.90
70475;DHT22;57944;48.722;9.316;2022-12-18T14:02:45;-1.10;99.90
70475;DHT22;57944;48.722;9.316;2022-12-18T14:05:22;-1.30;99.90
70475;DHT22;57944;48.722;9.316;2022-12-18T14:07:53;-1.50;99.90
70475;DHT22;57944;48.722;9.316;2022-12-18T14:10:24;-1.40;99.90
70475;DHT22;57944;48.722;9.316;2022-12-18T14:13:21;-1.60;99.90
70475;DHT22;57944;48.722;9.316;2022-12-18T14:15:56;-1.40;99.90
70475;DHT22;57944;48.722;9.316;2022-12-18T14:18:37;-1.80;99.90
70475;DHT22;57944;48.722;9.316;2022-12-18T14:21:21;-2.00;99.90
70475;DHT22;57944;48.722;9.316;2022-12-18T14:24:04;-2.00;99.90
70475;DHT22;57944;48.722;9.316;2022-12-18T14:26:46;-2.40;99.90
70475;DHT22;57944;48.722;9.316;2022-12-18T14:29:22;-2.50;99.90
70475;DHT22;57944;48.722;9.316;2022-12-18T14:32:09;-2.40;99.90
70475;DHT22;57944;48.722;9.316;2022-12-18T14:34:46;-2.70;99.90
70475;DHT22;57944;48.722;9.316;2022-12-18T14:37:20;-2.70;99.90
70475;DHT22;57944;48.722;9.316;2022-12-18T14:39:57;-2.80;99.90
70475;DHT22;57944;48.722;9.316;2022-12-18T14:42:37;-2.80;99.90
70475;DHT22;57944;48.722;9.316;2022-12-18T14:45:35;-2.80;99.90
70475;DHT22;57944;48.722;9.316;2022-12-18T14:48:15;-3.00;99.90
70475;DHT22;57944;48.722;9.316;2022-12-18T14:50:58;-3.20;99.90
70475;DHT22;57944;48.722;9.316;2022-12-18T14:53:34;-3.30;99.90
70475;DHT22;57944;48.722;9.316;2022-12-18T14:56:16;-3.30;99.90
70475;DHT22;57944;48.722;9.316;2022-12-18T14:58:51;-3.30;99.90
70475;DHT22;57944;48.722;9.316;2022-12-18T15:01:28;-3.50;99.90
70475;DHT22;57944;48.722;9.316;2022-12-18T15:04:03;-3.60;99.90
70475;DHT22;57944;48.722;9.316;2022-12-18T15:06:36;-3.30;99.90
70475;DHT22;57944;48.722;9.316;2022-12-18T15:09:22;-2.90;99.90
70475;DHT22;57944;48.722;9.316;2022-12-18T15:11:56;-2.60;99.90
70475;DHT22;57944;48.722;9.316;2022-12-18T15:14:39;-3.20;99.90
70475;DHT22;57944;48.722;9.316;2022-12-18T15:17:19;-3.60;99.90
70475;DHT22;57944;48.722;9.316;2022-12-18T15:19:58;-3.70;99.90
70475;DHT22;57944;48.722;9.316;2022-12-18T15:22:33;-3.80;99.90
70475;DHT22;57944;48.722;9.316;2022-12-18T15:25:25;-4.00;99.90
70475;DHT22;57944;48.722;9.316;2022-12-18T15:28:01;-4.20;99.90
70475;DHT22;57944;48.722;9.316;2022-12-18T15:30:31;-4.30;99.90
70475;DHT22;57944;48.722;9.316;2022-12-18T15:33:22;-4.40;99.90
70475;DHT22;57944;48.722;9.316;2022-12-18T15:35:57;-4.40;99.90
70475;DHT22;57944;48.722;9.316;2022-12-18T15:38:28;-4.40;99.90
70475;DHT22;57944;48.722;9.316;2022-12-18T15:40:59;-4.50;99.90
70475;DHT22;57944;48.722;9.316;2022-12-18T15:43:37;-4.50;99.90
70475;DHT22;57944;48.722;9.316;2022-12-18T15:46:09;-4.60;99.90
70475;DHT22;57944;48.722;9.316;2022-12-18T15:48:46;-4.70;99.90
70475;DHT22;57944;48.722;9.316;2022-12-18T15:51:26;-4.70;99.90
70475;DHT22;57944;48.722;9.316;2022-12-18T15:54:05;-4.60;99.90
70475;DHT22;57944;48.722;9.316;2022-12-18T15:56:42;-4.50;99.90
70475;DHT22;57944;48.722;9.316;2022-12-18T15:59:25;-4.60;99.90
70475;DHT22;57944;48.722;9.316;2022-12-18T16:01:56;-4.60;99.90
70475;DHT22;57944;48.722;9.316;2022-12-18T16:04:30;-4.70;99.90
70475;DHT22;57944;48.722;9.316;2022-12-18T16:07:01;-4.60;99.90
70475;DHT22;57944;48.722;9.316;2022-12-18T16:09:41;-4.70;99.90
70475;DHT22;57944;48.722;9.316;2022-12-18T16:12:16;-4.70;99.90
70475;DHT22;57944;48.722;9.316;2022-12-18T16:14:48;-4.90;99.90
70475;DHT22;57944;48.722;9.316;2022-12-18T16:17:18;-5.00;99.90
70475;DHT22;57944;48.722;9.316;2022-12-18T16:19:50;-4.90;99.90
70475;DHT22;57944;48.722;9.316;2022-12-18T16:22:23;-4.70;99.90
70475;DHT22;57944;48.722;9.316;2022-12-18T16:24:55;-4.70;99.90
70475;DHT22;57944;48.722;9.316;2022-12-18T16:27:26;-4.80;99.90